sensor_id;sensor_type;location;lat;lon;timestamp;P1;durP1;ratioP1;P2;durP2;ratioP2
8213;SDS011;4148;47.974;7.824;2023-08-01T00:00:00;8.60;;;3.60;;
8213;SDS011;4148;47.974;7.824;2023-08-01T00:02:31;6.00;;;3.63;;
8213;SDS011;4148;47.974;7.824;2023-08-01T00:05:01;5.77;;;3.90;;
8213;SDS011;4148;47.974;7.824;2023-08-01T00:07:28;6.77;;;3.90;;
8213;SDS011;4148;47.974;7.824;2023-08-01T00:09:56;31.97;;;4.87;;
8213;SDS011;4148;47.974;7.824;2023-08-01T00:12:24;5.13;;;3.90;;
8213;SDS011;4148;47.974;7.824;2023-08-01T00:14:52;5.50;;;4.23;;
8213;SDS011;4148;47.974;7.824;2023-08-01T00:17:20;5.37;;;3.70;;
8213;SDS011;4148;47.974;7.824;2023-08-01T00:19:48;5.43;;;3.80;;
8213;SDS011;4148;47.974;7.824;2023-08-01T00:22:17;6.67;;;3.70;;
8213;SDS011;4148;47.974;7.824;2023-08-01T00:24:45;6.20;;;4.63;;
8213;SDS011;4148;47.974;7.824;2023-08-01T00:27:14;5.20;;;3.50;;
8213;SDS011;4148;47.974;7.824;2023-08-01T00:29:42;5.00;;;3.90;;
8213;SDS011;4148;47.974;7.824;2023-08-01T00:32:09;4.30;;;3.50;;
8213;SDS011;4148;47.974;7.824;2023-08-01T00:34:37;7.10;;;3.70;;
8213;SDS011;4148;47.974;7.824;2023-08-01T00:37:05;4.97;;;3.60;;
8213;SDS011;4148;47.974;7.824;2023-08-01T00:39:34;5.33;;;3.77;;
8213;SDS011;4148;47.974;7.824;2023-08-01T00:42:02;5.77;;;3.90;;
8213;SDS011;4148;47.974;7.824;2023-08-01T00:44:31;5.00;;;3.83;;
8213;SDS011;4148;47.974;7.824;2023-08-01T00:46:59;6.67;;;3.97;;
8213;SDS011;4148;47.974;7.824;2023-08-01T00:49:27;7.70;;;4.50;;
8213;SDS011;4148;47.974;7.824;2023-08-01T00:51:55;4.77;;;3.80;;
8213;SDS011;4148;47.974;7.824;2023-08-01T00:54:23;4.23;;;3.23;;
8213;SDS011;4148;47.974;7.824;2023-08-01T00:56:52;6.67;;;4.27;;
8213;SDS011;4148;47.974;7.824;2023-08-01T00:59:20;5.67;;;4.10;;
8213;SDS011;4148;47.974;7.824;2023-08-01T01:01:48;5.43;;;4.40;;
8213;SDS011;4148;47.974;7.824;2023-08-01T01:04:16;5.30;;;3.73;;
8213;SDS011;4148;47.974;7.824;2023-08-01T01:06:44;4.60;;;3.50;;
8213;SDS011;4148;47.974;7.824;2023-08-01T01:09:16;6.87;;;3.70;;
8213;SDS011;4148;47.974;7.824;2023-08-01T01:11:45;5.80;;;3.60;;
8213;SDS011;4148;47.974;7.824;2023-08-01T01:14:15;5.10;;;4.17;;
8213;SDS011;4148;47.974;7.824;2023-08-01T01:16:43;5.67;;;3.67;;
8213;SDS011;4148;47.974;7.824;2023-08-01T01:19:11;5.20;;;3.80;;
8213;SDS011;4148;47.974;7.824;2023-08-01T01:21:40;7.60;;;3.87;;
8213;SDS011;4148;47.974;7.824;2023-08-01T01:24:10;5.93;;;3.87;;
8213;SDS011;4148;47.974;7.824;2023-08-01T01:26:39;3.67;;;3.20;;
8213;SDS011;4148;47.974;7.824;2023-08-01T01:29:08;4.80;;;3.80;;
8213;SDS011;4148;47.974;7.824;2023-08-01T01:31:37;6.83;;;3.73;;
8213;SDS011;4148;47.974;7.824;2023-08-01T01:34:07;5.93;;;3.67;;
8213;SDS011;4148;47.974;7.824;2023-08-01T01:36:35;6.00;;;3.40;;
8213;SDS011;4148;47.974;7.824;2023-08-01T01:39:05;5.60;;;3.40;;
8213;SDS011;4148;47.974;7.824;2023-08-01T01:41:33;5.20;;;3.40;;
8213;SDS011;4148;47.974;7.824;2023-08-01T01:44:01;5.50;;;4.00;;
8213;SDS011;4148;47.974;7.824;2023-08-01T01:46:29;6.10;;;3.90;;
8213;SDS011;4148;47.974;7.824;2023-08-01T01:48:56;7.33;;;4.13;;
8213;SDS011;4148;47.974;7.824;2023-08-01T01:51:25;5.97;;;3.30;;
8213;SDS011;4148;47.974;7.824;2023-08-01T01:53:53;4.53;;;3.37;;
8213;SDS011;4148;47.974;7.824;2023-08-01T01:56:22;5.13;;;3.23;;
8213;SDS011;4148;47.974;7.824;2023-08-01T01:58:50;6.00;;;3.83;;
8213;SDS011;4148;47.974;7.824;2023-08-01T02:01:18;4.90;;;2.90;;
8213;SDS011;4148;47.974;7.824;2023-08-01T02:03:46;6.53;;;3.60;;
8213;SDS011;4148;47.974;7.824;2023-08-01T02:06:14;5.63;;;3.40;;
8213;SDS011;4148;47.974;7.824;2023-08-01T02:08:41;4.70;;;3.23;;
8213;SDS011;4148;47.974;7.824;2023-08-01T02:11:09;7.07;;;3.67;;
8213;SDS011;4148;47.974;7.824;2023-08-01T02:13:38;6.50;;;3.47;;
8213;SDS011;4148;47.974;7.824;2023-08-01T02:16:06;5.50;;;3.80;;
8213;SDS011;4148;47.974;7.824;2023-08-01T02:18:34;8.47;;;3.90;;
8213;SDS011;4148;47.974;7.824;2023-08-01T02:21:03;7.77;;;3.60;;
8213;SDS011;4148;47.974;7.824;2023-08-01T02:23:30;4.10;;;3.67;;
8213;SDS011;4148;47.974;7.824;2023-08-01T02:25:59;3.97;;;3.57;;
8213;SDS011;4148;47.974;7.824;2023-08-01T02:28:27;5.40;;;3.30;;
8213;SDS011;4148;47.974;7.824;2023-08-01T02:30:56;6.17;;;3.47;;
8213;SDS011;4148;47.974;7.824;2023-08-01T02:33:24;8.23;;;3.40;;
8213;SDS011;4148;47.974;7.824;2023-08-01T02:35:52;6.63;;;3.77;;
8213;SDS011;4148;47.974;7.824;2023-08-01T02:38:20;4.70;;;3.30;;
8213;SDS011;4148;47.974;7.824;2023-08-01T02:40:48;6.10;;;3.63;;
8213;SDS011;4148;47.974;7.824;2023-08-01T02:43:16;6.40;;;3.73;;
8213;SDS011;4148;47.974;7.824;2023-08-01T02:45:44;6.40;;;3.77;;
8213;SDS011;4148;47.974;7.824;2023-08-01T02:48:14;5.43;;;3.23;;
8213;SDS011;4148;47.974;7.824;2023-08-01T02:50:43;5.80;;;3.53;;
8213;SDS011;4148;47.974;7.824;2023-08-01T02:53:12;6.03;;;3.63;;
8213;SDS011;4148;47.974;7.824;2023-08-01T02:55:41;8.27;;;4.23;;
8213;SDS011;4148;47.974;7.824;2023-08-01T02:58:09;4.80;;;3.70;;
8213;SDS011;4148;47.974;7.824;2023-08-01T03:00:37;5.13;;;3.90;;
8213;SDS011;4148;47.974;7.824;2023-08-01T03:03:06;5.40;;;3.70;;
8213;SDS011;4148;47.974;7.824;2023-08-01T03:05:36;7.10;;;4.20;;
8213;SDS011;4148;47.974;7.824;2023-08-01T03:08:04;4.73;;;3.30;;
8213;SDS011;4148;47.974;7.824;2023-08-01T03:10:32;6.37;;;3.30;;
8213;SDS011;4148;47.974;7.824;2023-08-01T03:13:02;4.97;;;3.77;;
8213;SDS011;4148;47.974;7.824;2023-08-01T03:15:30;7.10;;;3.40;;
8213;SDS011;4148;47.974;7.824;2023-08-01T03:17:58;3.97;;;2.87;;
8213;SDS011;4148;47.974;7.824;2023-08-01T03:20:26;5.10;;;3.33;;
8213;SDS011;4148;47.974;7.824;2023-08-01T03:22:55;7.03;;;3.70;;
8213;SDS011;4148;47.974;7.824;2023-08-01T03:25:23;6.97;;;3.30;;
8213;SDS011;4148;47.974;7.824;2023-08-01T03:27:51;12.00;;;4.57;;
8213;SDS011;4148;47.974;7.824;2023-08-01T03:30:20;5.43;;;3.40;;
8213;SDS011;4148;47.974;7.824;2023-08-01T03:32:48;3.73;;;3.30;;
8213;SDS011;4148;47.974;7.824;2023-08-01T03:35:16;4.17;;;3.03;;
8213;SDS011;4148;47.974;7.824;2023-08-01T03:37:44;8.97;;;4.03;;
8213;SDS011;4148;47.974;7.824;2023-08-01T03:40:13;6.53;;;3.50;;
8213;SDS011;4148;47.974;7.824;2023-08-01T03:42:41;5.83;;;2.73;;
8213;SDS011;4148;47.974;7.824;2023-08-01T03:45:10;8.33;;;4.20;;
8213;SDS011;4148;47.974;7.824;2023-08-01T03:47:38;6.30;;;4.10;;
8213;SDS011;4148;47.974;7.824;2023-08-01T03:50:06;5.83;;;3.67;;
8213;SDS011;4148;47.974;7.824;2023-08-01T03:52:34;7.80;;;3.90;;
8213;SDS011;4148;47.974;7.824;2023-08-01T03:55:02;8.40;;;4.40;;
8213;SDS011;4148;47.974;7.824;2023-08-01T03:57:31;12.27;;;3.83;;
8213;SDS011;4148;47.974;7.824;2023-08-01T04:00:00;4.90;;;3.40;;
8213;SDS011;4148;47.974;7.824;2023-08-01T04:02:29;5.97;;;3.80;;
8213;SDS011;4148;47.974;7.824;2023-08-01T04:04:57;7.53;;;4.03;;
8213;SDS011;4148;47.974;7.824;2023-08-01T04:07:24;8.50;;;3.73;;
8213;SDS011;4148;47.974;7.824;2023-08-01T04:09:52;4.17;;;3.50;;
8213;SDS011;4148;47.974;7.824;2023-08-01T04:12:20;9.00;;;3.63;;
8213;SDS011;4148;47.974;7.824;2023-08-01T04:14:49;5.63;;;3.80;;
8213;SDS011;4148;47.974;7.824;2023-08-01T04:17:17;7.60;;;4.37;;
8213;SDS011;4148;47.974;7.824;2023-08-01T04:19:45;6.23;;;4.17;;
8213;SDS011;4148;47.974;7.824;2023-08-01T04:22:13;8.23;;;3.37;;
8213;SDS011;4148;47.974;7.824;2023-08-01T04:24:41;7.50;;;3.57;;
8213;SDS011;4148;47.974;7.824;2023-08-01T04:27:08;5.40;;;3.93;;
8213;SDS011;4148;47.974;7.824;2023-08-01T04:29:36;6.00;;;4.23;;
8213;SDS011;4148;47.974;7.824;2023-08-01T04:32:06;8.70;;;3.80;;
8213;SDS011;4148;47.974;7.824;2023-08-01T04:34:34;7.53;;;4.17;;
8213;SDS011;4148;47.974;7.824;2023-08-01T04:37:02;6.43;;;3.60;;
8213;SDS011;4148;47.974;7.824;2023-08-01T04:39:31;6.80;;;3.40;;
8213;SDS011;4148;47.974;7.824;2023-08-01T04:41:59;5.37;;;3.83;;
8213;SDS011;4148;47.974;7.824;2023-08-01T04:44:26;7.67;;;3.70;;
8213;SDS011;4148;47.974;7.824;2023-08-01T04:46:55;8.03;;;4.57;;
8213;SDS011;4148;47.974;7.824;2023-08-01T04:49:25;7.77;;;3.73;;
8213;SDS011;4148;47.974;7.824;2023-08-01T04:51:52;6.40;;;3.87;;
8213;SDS011;4148;47.974;7.824;2023-08-01T04:54:21;6.50;;;3.70;;
8213;SDS011;4148;47.974;7.824;2023-08-01T04:56:49;6.70;;;3.63;;
8213;SDS011;4148;47.974;7.824;2023-08-01T04:59:17;7.10;;;3.53;;
8213;SDS011;4148;47.974;7.824;2023-08-01T05:01:45;5.60;;;4.00;;
8213;SDS011;4148;47.974;7.824;2023-08-01T05:04:12;6.53;;;4.23;;
8213;SDS011;4148;47.974;7.824;2023-08-01T05:06:42;7.60;;;3.80;;
8213;SDS011;4148;47.974;7.824;2023-08-01T05:09:10;9.70;;;5.47;;
8213;SDS011;4148;47.974;7.824;2023-08-01T05:11:37;9.47;;;3.90;;
8213;SDS011;4148;47.974;7.824;2023-08-01T05:14:05;7.90;;;3.73;;
8213;SDS011;4148;47.974;7.824;2023-08-01T05:16:33;6.93;;;3.93;;
8213;SDS011;4148;47.974;7.824;2023-08-01T05:19:01;8.87;;;4.10;;
8213;SDS011;4148;47.974;7.824;2023-08-01T05:21:29;7.37;;;3.70;;
8213;SDS011;4148;47.974;7.824;2023-08-01T05:23:58;6.10;;;4.23;;
8213;SDS011;4148;47.974;7.824;2023-08-01T05:26:26;6.97;;;4.67;;
8213;SDS011;4148;47.974;7.824;2023-08-01T05:28:54;5.63;;;4.20;;
8213;SDS011;4148;47.974;7.824;2023-08-01T05:31:22;6.87;;;4.40;;
8213;SDS011;4148;47.974;7.824;2023-08-01T05:33:50;6.37;;;5.07;;
8213;SDS011;4148;47.974;7.824;2023-08-01T05:36:17;6.40;;;4.90;;
8213;SDS011;4148;47.974;7.824;2023-08-01T05:38:45;7.40;;;4.67;;
8213;SDS011;4148;47.974;7.824;2023-08-01T05:41:14;6.47;;;4.03;;
8213;SDS011;4148;47.974;7.824;2023-08-01T05:43:42;5.20;;;3.90;;
8213;SDS011;4148;47.974;7.824;2023-08-01T05:46:10;7.40;;;4.70;;
8213;SDS011;4148;47.974;7.824;2023-08-01T05:48:38;6.10;;;4.10;;
8213;SDS011;4148;47.974;7.824;2023-08-01T05:51:06;8.90;;;4.30;;
8213;SDS011;4148;47.974;7.824;2023-08-01T05:53:34;7.60;;;3.77;;
8213;SDS011;4148;47.974;7.824;2023-08-01T05:56:02;7.87;;;4.30;;
8213;SDS011;4148;47.974;7.824;2023-08-01T05:58:32;6.03;;;4.00;;
8213;SDS011;4148;47.974;7.824;2023-08-01T06:01:00;10.60;;;4.33;;
8213;SDS011;4148;47.974;7.824;2023-08-01T06:03:28;8.70;;;4.30;;
8213;SDS011;4148;47.974;7.824;2023-08-01T06:05:56;8.73;;;4.97;;
8213;SDS011;4148;47.974;7.824;2023-08-01T06:08:23;7.03;;;4.30;;
8213;SDS011;4148;47.974;7.824;2023-08-01T06:10:51;6.50;;;4.13;;
8213;SDS011;4148;47.974;7.824;2023-08-01T06:13:19;7.70;;;4.37;;
8213;SDS011;4148;47.974;7.824;2023-08-01T06:15:49;8.20;;;4.93;;
8213;SDS011;4148;47.974;7.824;2023-08-01T06:18:17;12.20;;;9.00;;
8213;SDS011;4148;47.974;7.824;2023-08-01T06:20:45;14.70;;;6.73;;
8213;SDS011;4148;47.974;7.824;2023-08-01T06:23:13;10.33;;;5.27;;
8213;SDS011;4148;47.974;7.824;2023-08-01T06:25:41;6.40;;;4.80;;
8213;SDS011;4148;47.974;7.824;2023-08-01T06:28:09;10.23;;;5.90;;
8213;SDS011;4148;47.974;7.824;2023-08-01T06:30:37;8.40;;;6.00;;
8213;SDS011;4148;47.974;7.824;2023-08-01T06:33:06;7.80;;;5.10;;
8213;SDS011;4148;47.974;7.824;2023-08-01T06:35:34;12.10;;;6.30;;
8213;SDS011;4148;47.974;7.824;2023-08-01T06:38:02;9.93;;;5.50;;
8213;SDS011;4148;47.974;7.824;2023-08-01T06:40:30;7.47;;;5.07;;
8213;SDS011;4148;47.974;7.824;2023-08-01T06:42:58;12.17;;;6.30;;
8213;SDS011;4148;47.974;7.824;2023-08-01T06:45:26;6.13;;;5.27;;
8213;SDS011;4148;47.974;7.824;2023-08-01T06:47:54;6.60;;;4.20;;
8213;SDS011;4148;47.974;7.824;2023-08-01T06:50:23;6.70;;;5.43;;
8213;SDS011;4148;47.974;7.824;2023-08-01T06:52:51;5.00;;;4.03;;
8213;SDS011;4148;47.974;7.824;2023-08-01T06:55:19;9.73;;;5.13;;
8213;SDS011;4148;47.974;7.824;2023-08-01T06:57:47;5.53;;;3.63;;
8213;SDS011;4148;47.974;7.824;2023-08-01T07:00:15;7.80;;;3.90;;
8213;SDS011;4148;47.974;7.824;2023-08-01T07:02:43;7.13;;;4.07;;
8213;SDS011;4148;47.974;7.824;2023-08-01T07:05:11;5.13;;;3.60;;
8213;SDS011;4148;47.974;7.824;2023-08-01T07:07:40;6.00;;;4.03;;
8213;SDS011;4148;47.974;7.824;2023-08-01T07:10:08;4.57;;;3.23;;
8213;SDS011;4148;47.974;7.824;2023-08-01T07:12:36;5.00;;;4.33;;
8213;SDS011;4148;47.974;7.824;2023-08-01T07:15:04;6.37;;;3.50;;
8213;SDS011;4148;47.974;7.824;2023-08-01T07:17:33;6.40;;;4.00;;
8213;SDS011;4148;47.974;7.824;2023-08-01T07:20:02;7.30;;;4.03;;
8213;SDS011;4148;47.974;7.824;2023-08-01T07:22:30;6.70;;;4.70;;
8213;SDS011;4148;47.974;7.824;2023-08-01T07:24:59;9.00;;;4.37;;
8213;SDS011;4148;47.974;7.824;2023-08-01T07:27:27;5.57;;;3.30;;
8213;SDS011;4148;47.974;7.824;2023-08-01T07:29:55;9.60;;;4.17;;
8213;SDS011;4148;47.974;7.824;2023-08-01T07:32:22;11.00;;;5.10;;
8213;SDS011;4148;47.974;7.824;2023-08-01T07:34:50;10.23;;;9.00;;
8213;SDS011;4148;47.974;7.824;2023-08-01T07:37:18;6.63;;;4.73;;
8213;SDS011;4148;47.974;7.824;2023-08-01T07:39:46;5.50;;;3.87;;
8213;SDS011;4148;47.974;7.824;2023-08-01T07:42:15;6.37;;;3.50;;
8213;SDS011;4148;47.974;7.824;2023-08-01T07:44:43;7.20;;;4.93;;
8213;SDS011;4148;47.974;7.824;2023-08-01T07:47:11;6.90;;;3.83;;
8213;SDS011;4148;47.974;7.824;2023-08-01T07:49:39;5.60;;;3.80;;
8213;SDS011;4148;47.974;7.824;2023-08-01T07:52:07;5.10;;;3.57;;
8213;SDS011;4148;47.974;7.824;2023-08-01T07:54:37;5.20;;;3.20;;
8213;SDS011;4148;47.974;7.824;2023-08-01T07:57:05;4.63;;;3.17;;
8213;SDS011;4148;47.974;7.824;2023-08-01T07:59:35;7.13;;;4.73;;
8213;SDS011;4148;47.974;7.824;2023-08-01T08:02:03;7.70;;;3.50;;
8213;SDS011;4148;47.974;7.824;2023-08-01T08:04:31;4.00;;;3.23;;
8213;SDS011;4148;47.974;7.824;2023-08-01T08:06:59;6.57;;;4.20;;
8213;SDS011;4148;47.974;7.824;2023-08-01T08:09:27;4.47;;;3.50;;
8213;SDS011;4148;47.974;7.824;2023-08-01T08:11:55;7.17;;;4.90;;
8213;SDS011;4148;47.974;7.824;2023-08-01T08:14:23;6.57;;;4.10;;
8213;SDS011;4148;47.974;7.824;2023-08-01T08:16:52;6.93;;;3.70;;
8213;SDS011;4148;47.974;7.824;2023-08-01T08:19:20;5.07;;;3.10;;
8213;SDS011;4148;47.974;7.824;2023-08-01T08:21:50;17.67;;;12.30;;
8213;SDS011;4148;47.974;7.824;2023-08-01T08:24:18;8.13;;;4.67;;
8213;SDS011;4148;47.974;7.824;2023-08-01T08:26:46;6.77;;;5.40;;
8213;SDS011;4148;47.974;7.824;2023-08-01T08:29:15;5.33;;;4.60;;
8213;SDS011;4148;47.974;7.824;2023-08-01T08:31:43;6.07;;;4.10;;
8213;SDS011;4148;47.974;7.824;2023-08-01T08:34:12;4.37;;;3.50;;
8213;SDS011;4148;47.974;7.824;2023-08-01T08:36:40;3.70;;;3.30;;
8213;SDS011;4148;47.974;7.824;2023-08-01T08:39:08;5.83;;;3.73;;
8213;SDS011;4148;47.974;7.824;2023-08-01T08:41:37;4.63;;;4.10;;
8213;SDS011;4148;47.974;7.824;2023-08-01T08:44:09;5.23;;;4.00;;
8213;SDS011;4148;47.974;7.824;2023-08-01T08:46:41;4.73;;;3.50;;
8213;SDS011;4148;47.974;7.824;2023-08-01T08:49:12;4.20;;;3.33;;
8213;SDS011;4148;47.974;7.824;2023-08-01T08:51:42;5.10;;;4.00;;
8213;SDS011;4148;47.974;7.824;2023-08-01T08:54:12;4.73;;;2.70;;
8213;SDS011;4148;47.974;7.824;2023-08-01T08:56:40;4.83;;;2.50;;
8213;SDS011;4148;47.974;7.824;2023-08-01T08:59:08;3.77;;;2.80;;
8213;SDS011;4148;47.974;7.824;2023-08-01T09:01:37;4.43;;;3.00;;
8213;SDS011;4148;47.974;7.824;2023-08-01T09:04:05;4.10;;;3.27;;
8213;SDS011;4148;47.974;7.824;2023-08-01T09:06:37;5.17;;;3.77;;
8213;SDS011;4148;47.974;7.824;2023-08-01T09:09:11;3.53;;;2.87;;
8213;SDS011;4148;47.974;7.824;2023-08-01T09:11:44;4.00;;;2.63;;
8213;SDS011;4148;47.974;7.824;2023-08-01T09:14:13;6.47;;;2.87;;
8213;SDS011;4148;47.974;7.824;2023-08-01T09:16:42;3.90;;;2.63;;
8213;SDS011;4148;47.974;7.824;2023-08-01T09:19:11;4.33;;;3.60;;
8213;SDS011;4148;47.974;7.824;2023-08-01T09:21:45;4.63;;;3.57;;
8213;SDS011;4148;47.974;7.824;2023-08-01T09:24:14;3.37;;;3.07;;
8213;SDS011;4148;47.974;7.824;2023-08-01T09:26:43;4.90;;;3.50;;
8213;SDS011;4148;47.974;7.824;2023-08-01T09:29:11;4.53;;;3.37;;
8213;SDS011;4148;47.974;7.824;2023-08-01T09:31:40;3.93;;;2.97;;
8213;SDS011;4148;47.974;7.824;2023-08-01T09:34:17;3.93;;;3.10;;
8213;SDS011;4148;47.974;7.824;2023-08-01T09:36:48;4.13;;;2.87;;
8213;SDS011;4148;47.974;7.824;2023-08-01T09:39:16;4.07;;;3.10;;
8213;SDS011;4148;47.974;7.824;2023-08-01T09:41:45;4.87;;;3.40;;
8213;SDS011;4148;47.974;7.824;2023-08-01T09:44:15;4.30;;;3.50;;
8213;SDS011;4148;47.974;7.824;2023-08-01T09:46:43;4.63;;;3.20;;
8213;SDS011;4148;47.974;7.824;2023-08-01T09:49:21;5.10;;;3.40;;
8213;SDS011;4148;47.974;7.824;2023-08-01T09:51:51;3.93;;;3.13;;
8213;SDS011;4148;47.974;7.824;2023-08-01T09:54:20;3.67;;;3.17;;
8213;SDS011;4148;47.974;7.824;2023-08-01T09:56:49;3.83;;;3.13;;
8213;SDS011;4148;47.974;7.824;2023-08-01T09:59:18;5.17;;;2.73;;
8213;SDS011;4148;47.974;7.824;2023-08-01T10:01:48;4.00;;;2.50;;
8213;SDS011;4148;47.974;7.824;2023-08-01T10:04:18;3.40;;;2.40;;
8213;SDS011;4148;47.974;7.824;2023-08-01T10:06:49;5.47;;;2.60;;
8213;SDS011;4148;47.974;7.824;2023-08-01T10:09:22;4.83;;;2.27;;
8213;SDS011;4148;47.974;7.824;2023-08-01T10:11:51;3.43;;;2.10;;
8213;SDS011;4148;47.974;7.824;2023-08-01T10:14:19;2.97;;;2.40;;
8213;SDS011;4148;47.974;7.824;2023-08-01T10:16:47;3.83;;;2.63;;
8213;SDS011;4148;47.974;7.824;2023-08-01T10:19:17;3.00;;;2.37;;
8213;SDS011;4148;47.974;7.824;2023-08-01T10:21:45;6.70;;;2.80;;
8213;SDS011;4148;47.974;7.824;2023-08-01T10:24:16;4.27;;;2.50;;
8213;SDS011;4148;47.974;7.824;2023-08-01T10:26:44;3.83;;;2.77;;
8213;SDS011;4148;47.974;7.824;2023-08-01T10:29:12;5.40;;;2.87;;
8213;SDS011;4148;47.974;7.824;2023-08-01T10:31:50;2.90;;;2.47;;
8213;SDS011;4148;47.974;7.824;2023-08-01T10:34:19;3.80;;;2.13;;
8213;SDS011;4148;47.974;7.824;2023-08-01T10:36:54;6.30;;;2.57;;
8213;SDS011;4148;47.974;7.824;2023-08-01T10:39:24;2.73;;;2.30;;
8213;SDS011;4148;47.974;7.824;2023-08-01T10:41:59;2.60;;;2.27;;
8213;SDS011;4148;47.974;7.824;2023-08-01T10:44:28;3.67;;;2.50;;
8213;SDS011;4148;47.974;7.824;2023-08-01T10:46:59;3.83;;;2.30;;
8213;SDS011;4148;47.974;7.824;2023-08-01T10:49:34;3.73;;;2.63;;
8213;SDS011;4148;47.974;7.824;2023-08-01T10:52:03;4.87;;;2.63;;
8213;SDS011;4148;47.974;7.824;2023-08-01T10:54:44;3.43;;;2.50;;
8213;SDS011;4148;47.974;7.824;2023-08-01T10:57:15;3.70;;;2.43;;
8213;SDS011;4148;47.974;7.824;2023-08-01T10:59:44;5.40;;;2.10;;
8213;SDS011;4148;47.974;7.824;2023-08-01T11:02:19;3.83;;;2.20;;
8213;SDS011;4148;47.974;7.824;2023-08-01T11:04:54;2.83;;;1.93;;
8213;SDS011;4148;47.974;7.824;2023-08-01T11:07:23;4.27;;;2.30;;
8213;SDS011;4148;47.974;7.824;2023-08-01T11:10:03;4.20;;;2.70;;
8213;SDS011;4148;47.974;7.824;2023-08-01T11:12:33;3.47;;;2.40;;
8213;SDS011;4148;47.974;7.824;2023-08-01T11:15:03;4.07;;;2.40;;
8213;SDS011;4148;47.974;7.824;2023-08-01T11:17:34;3.20;;;1.93;;
8213;SDS011;4148;47.974;7.824;2023-08-01T11:20:04;2.47;;;2.10;;
8213;SDS011;4148;47.974;7.824;2023-08-01T11:22:33;2.70;;;1.90;;
8213;SDS011;4148;47.974;7.824;2023-08-01T11:25:03;3.37;;;1.90;;
8213;SDS011;4148;47.974;7.824;2023-08-01T11:27:32;4.77;;;2.47;;
8213;SDS011;4148;47.974;7.824;2023-08-01T11:30:01;2.20;;;1.80;;
8213;SDS011;4148;47.974;7.824;2023-08-01T11:32:32;4.43;;;2.10;;
8213;SDS011;4148;47.974;7.824;2023-08-01T11:35:01;4.33;;;2.00;;
8213;SDS011;4148;47.974;7.824;2023-08-01T11:37:30;2.17;;;1.90;;
8213;SDS011;4148;47.974;7.824;2023-08-01T11:39:58;2.20;;;2.00;;
8213;SDS011;4148;47.974;7.824;2023-08-01T11:42:31;5.03;;;2.27;;
8213;SDS011;4148;47.974;7.824;2023-08-01T11:45:09;3.20;;;1.90;;
8213;SDS011;4148;47.974;7.824;2023-08-01T11:47:44;5.40;;;2.30;;
8213;SDS011;4148;47.974;7.824;2023-08-01T11:50:13;2.40;;;1.60;;
8213;SDS011;4148;47.974;7.824;2023-08-01T11:52:46;3.03;;;1.40;;
8213;SDS011;4148;47.974;7.824;2023-08-01T11:55:18;1.93;;;1.50;;
8213;SDS011;4148;47.974;7.824;2023-08-01T11:57:54;1.93;;;1.50;;
8213;SDS011;4148;47.974;7.824;2023-08-01T12:00:24;2.03;;;1.40;;
8213;SDS011;4148;47.974;7.824;2023-08-01T12:03:02;1.63;;;1.33;;
8213;SDS011;4148;47.974;7.824;2023-08-01T12:05:31;2.23;;;1.30;;
8213;SDS011;4148;47.974;7.824;2023-08-01T12:08:09;1.70;;;1.30;;
8213;SDS011;4148;47.974;7.824;2023-08-01T12:10:38;1.80;;;1.27;;
8213;SDS011;4148;47.974;7.824;2023-08-01T12:13:18;2.33;;;1.33;;
8213;SDS011;4148;47.974;7.824;2023-08-01T12:15:46;1.73;;;1.20;;
8213;SDS011;4148;47.974;7.824;2023-08-01T12:18:19;3.50;;;1.40;;
8213;SDS011;4148;47.974;7.824;2023-08-01T12:21:08;2.47;;;1.43;;
8213;SDS011;4148;47.974;7.824;2023-08-01T12:23:36;2.47;;;1.50;;
8213;SDS011;4148;47.974;7.824;2023-08-01T12:26:04;2.80;;;1.40;;
8213;SDS011;4148;47.974;7.824;2023-08-01T12:28:33;1.63;;;1.03;;
8213;SDS011;4148;47.974;7.824;2023-08-01T12:31:01;1.83;;;1.10;;
8213;SDS011;4148;47.974;7.824;2023-08-01T12:33:29;2.70;;;1.40;;
8213;SDS011;4148;47.974;7.824;2023-08-01T12:35:58;1.80;;;1.20;;
8213;SDS011;4148;47.974;7.824;2023-08-01T12:38:26;2.03;;;1.37;;
8213;SDS011;4148;47.974;7.824;2023-08-01T12:40:54;2.23;;;1.10;;
8213;SDS011;4148;47.974;7.824;2023-08-01T12:43:22;2.17;;;1.07;;
8213;SDS011;4148;47.974;7.824;2023-08-01T12:45:51;1.40;;;1.00;;
8213;SDS011;4148;47.974;7.824;2023-08-01T12:48:21;2.40;;;1.13;;
8213;SDS011;4148;47.974;7.824;2023-08-01T12:50:49;2.20;;;1.23;;
8213;SDS011;4148;47.974;7.824;2023-08-01T12:53:17;1.50;;;1.00;;
8213;SDS011;4148;47.974;7.824;2023-08-01T12:55:45;3.00;;;1.10;;
8213;SDS011;4148;47.974;7.824;2023-08-01T12:58:14;1.50;;;0.90;;
8213;SDS011;4148;47.974;7.824;2023-08-01T13:00:42;1.60;;;1.20;;
8213;SDS011;4148;47.974;7.824;2023-08-01T13:03:12;1.97;;;1.20;;
8213;SDS011;4148;47.974;7.824;2023-08-01T13:05:41;2.23;;;1.27;;
8213;SDS011;4148;47.974;7.824;2023-08-01T13:08:09;1.80;;;1.13;;
8213;SDS011;4148;47.974;7.824;2023-08-01T13:10:38;1.50;;;0.90;;
8213;SDS011;4148;47.974;7.824;2023-08-01T13:13:06;1.80;;;1.20;;
8213;SDS011;4148;47.974;7.824;2023-08-01T13:15:34;1.47;;;0.97;;
8213;SDS011;4148;47.974;7.824;2023-08-01T13:18:02;2.20;;;1.10;;
8213;SDS011;4148;47.974;7.824;2023-08-01T13:20:31;1.57;;;1.07;;
8213;SDS011;4148;47.974;7.824;2023-08-01T13:23:02;1.63;;;1.13;;
8213;SDS011;4148;47.974;7.824;2023-08-01T13:25:30;1.47;;;1.10;;
8213;SDS011;4148;47.974;7.824;2023-08-01T13:27:58;1.50;;;0.90;;
8213;SDS011;4148;47.974;7.824;2023-08-01T13:30:26;3.30;;;1.23;;
8213;SDS011;4148;47.974;7.824;2023-08-01T13:32:54;12.20;;;1.87;;
8213;SDS011;4148;47.974;7.824;2023-08-01T13:35:22;3.27;;;1.40;;
8213;SDS011;4148;47.974;7.824;2023-08-01T13:37:51;3.63;;;1.80;;
8213;SDS011;4148;47.974;7.824;2023-08-01T13:40:19;1.60;;;1.10;;
8213;SDS011;4148;47.974;7.824;2023-08-01T13:42:47;1.40;;;1.00;;
8213;SDS011;4148;47.974;7.824;2023-08-01T13:45:14;1.67;;;1.00;;
8213;SDS011;4148;47.974;7.824;2023-08-01T13:47:42;2.17;;;1.10;;
8213;SDS011;4148;47.974;7.824;2023-08-01T13:50:11;3.77;;;1.53;;
8213;SDS011;4148;47.974;7.824;2023-08-01T13:52:38;4.43;;;1.50;;
8213;SDS011;4148;47.974;7.824;2023-08-01T13:55:08;2.40;;;1.30;;
8213;SDS011;4148;47.974;7.824;2023-08-01T13:57:37;2.97;;;1.30;;
8213;SDS011;4148;47.974;7.824;2023-08-01T14:00:05;2.10;;;1.20;;
8213;SDS011;4148;47.974;7.824;2023-08-01T14:02:39;1.87;;;1.10;;
8213;SDS011;4148;47.974;7.824;2023-08-01T14:05:07;1.40;;;0.90;;
8213;SDS011;4148;47.974;7.824;2023-08-01T14:07:35;1.43;;;0.93;;
8213;SDS011;4148;47.974;7.824;2023-08-01T14:10:09;4.07;;;1.20;;
8213;SDS011;4148;47.974;7.824;2023-08-01T14:12:37;1.57;;;1.20;;
8213;SDS011;4148;47.974;7.824;2023-08-01T14:15:05;1.97;;;1.50;;
8213;SDS011;4148;47.974;7.824;2023-08-01T14:17:34;1.90;;;1.10;;
8213;SDS011;4148;47.974;7.824;2023-08-01T14:20:02;1.57;;;1.17;;
8213;SDS011;4148;47.974;7.824;2023-08-01T14:22:31;1.40;;;0.90;;
8213;SDS011;4148;47.974;7.824;2023-08-01T14:24:59;2.10;;;1.40;;
8213;SDS011;4148;47.974;7.824;2023-08-01T14:27:28;2.67;;;1.20;;
8213;SDS011;4148;47.974;7.824;2023-08-01T14:29:56;1.87;;;1.07;;
8213;SDS011;4148;47.974;7.824;2023-08-01T14:32:24;1.70;;;1.20;;
8213;SDS011;4148;47.974;7.824;2023-08-01T14:34:52;1.63;;;1.10;;
8213;SDS011;4148;47.974;7.824;2023-08-01T14:37:19;1.60;;;1.20;;
8213;SDS011;4148;47.974;7.824;2023-08-01T14:39:50;3.20;;;1.30;;
8213;SDS011;4148;47.974;7.824;2023-08-01T14:42:18;1.60;;;1.10;;
8213;SDS011;4148;47.974;7.824;2023-08-01T14:44:52;1.93;;;1.50;;
8213;SDS011;4148;47.974;7.824;2023-08-01T14:47:20;1.60;;;1.20;;
8213;SDS011;4148;47.974;7.824;2023-08-01T14:49:48;2.63;;;1.40;;
8213;SDS011;4148;47.974;7.824;2023-08-01T14:52:16;2.80;;;1.97;;
8213;SDS011;4148;47.974;7.824;2023-08-01T14:54:50;1.73;;;1.40;;
8213;SDS011;4148;47.974;7.824;2023-08-01T14:57:18;1.50;;;1.23;;
8213;SDS011;4148;47.974;7.824;2023-08-01T14:59:46;2.63;;;1.43;;
8213;SDS011;4148;47.974;7.824;2023-08-01T15:02:16;3.20;;;1.40;;
8213;SDS011;4148;47.974;7.824;2023-08-01T15:04:43;1.80;;;1.30;;
8213;SDS011;4148;47.974;7.824;2023-08-01T15:07:11;4.70;;;1.80;;
8213;SDS011;4148;47.974;7.824;2023-08-01T15:09:41;1.80;;;1.30;;
8213;SDS011;4148;47.974;7.824;2023-08-01T15:12:09;1.60;;;1.20;;
8213;SDS011;4148;47.974;7.824;2023-08-01T15:14:40;3.30;;;1.60;;
8213;SDS011;4148;47.974;7.824;2023-08-01T15:17:08;9.90;;;2.70;;
8213;SDS011;4148;47.974;7.824;2023-08-01T15:19:37;6.07;;;2.23;;
8213;SDS011;4148;47.974;7.824;2023-08-01T15:22:06;2.10;;;1.60;;
8213;SDS011;4148;47.974;7.824;2023-08-01T15:24:34;2.10;;;1.50;;